Time;durP1;ratioP1;P1;durP2;ratioP2;P2;SDS_P1;SDS_P2;PMS_P1;PMS_P2;Temp;Humidity;BMP_temperature;BMP_pressure;BME280_temperature;BME280_humidity;BME280_pressure;Samples;Min_cycle;Max_cycle;Signal;HPM_P1;HPM_P2
2020/12/24 00:01:27;;;;;;;10.07;7.07;;;3.00;62.00;;;;;;4995450;28;20038;-86
2020/12/24 00:03:53;;;;;;;13.32;8.30;;;3.00;62.00;;;;;;4977192;28;20058;-88
2020/12/24 00:06:19;;;;;;;12.70;8.23;;;3.00;61.90;;;;;;4995602;28;20030;-83
2020/12/24 00:08:46;;;;;;;12.80;9.10;;;3.00;61.90;;;;;;4999622;28;20066;-84
2020/12/24 00:11:12;;;;;;;11.18;7.32;;;3.00;61.90;;;;;;4994738;28;20564;-85
2020/12/24 00:13:38;;;;;;;10.50;7.88;;;3.00;61.90;;;;;;4977549;28;20073;-85
2020/12/24 00:16:04;;;;;;;13.02;8.35;;;3.00;62.00;;;;;;4977542;28;20030;-85
2020/12/24 00:18:30;;;;;;;11.95;7.75;;;3.00;61.90;;;;;;4994926;28;20046;-84
2020/12/24 00:20:56;;;;;;;13.05;8.18;;;3.00;61.90;;;;;;4995405;28;20324;-84
2020/12/24 00:23:22;;;;;;;12.85;8.70;;;3.00;61.90;;;;;;4996486;28;20042;-84
2020/12/24 00:25:48;;;;;;;11.70;8.02;;;3.00;61.90;;;;;;4998038;28;20465;-83
2020/12/24 00:28:14;;;;;;;12.73;8.60;;;3.00;61.90;;;;;;4996794;28;20042;-83
2020/12/24 00:30:43;;;;;;;13.20;8.23;;;3.00;61.90;;;;;;5002871;28;20031;-83
2020/12/24 00:33:13;;;;;;;12.35;8.93;;;3.00;61.90;;;;;;4992317;28;20034;-85
2020/12/24 00:35:39;;;;;;;12.15;7.85;;;3.00;61.90;;;;;;5005272;28;20037;-83
2020/12/24 00:38:05;;;;;;;12.65;8.30;;;3.00;61.90;;;;;;5007337;28;20030;-83
2020/12/24 00:40:31;;;;;;;14.25;8.00;;;3.00;61.80;;;;;;4989859;28;20097;-86
2020/12/24 00:42:57;;;;;;;13.32;8.35;;;3.00;61.90;;;;;;5008534;28;20072;-87
2020/12/24 00:45:23;;;;;;;14.15;9.48;;;3.00;61.90;;;;;;5011554;28;20092;-84
2020/12/24 00:47:50;;;;;;;13.30;8.18;;;3.00;61.80;;;;;;4979852;28;20042;-84
2020/12/24 00:50:17;;;;;;;14.15;9.10;;;3.00;61.90;;;;;;5009026;28;20046;-84
2020/12/24 00:52:42;;;;;;;14.05;8.65;;;3.00;61.90;;;;;;4994907;28;20047;-86
2020/12/24 00:55:08;;;;;;;12.52;8.75;;;3.00;61.90;;;;;;4973320;28;20039;-86
2020/12/24 00:57:34;;;;;;;16.38;8.90;;;2.90;61.90;;;;;;4984281;28;20034;-86
2020/12/24 01:00:04;;;;;;;13.77;8.52;;;2.90;61.90;;;;;;4960463;28;20117;-85
2020/12/24 01:02:30;;;;;;;13.40;8.98;;;2.90;61.90;;;;;;4974607;28;20035;-84
2020/12/24 01:04:56;;;;;;;13.02;8.85;;;2.90;61.90;;;;;;4974638;28;20053;-85
2020/12/24 01:07:21;;;;;;;13.32;8.88;;;2.90;61.90;;;;;;4974341;28;20073;-86
2020/12/24 01:09:47;;;;;;;13.60;8.82;;;2.90;62.00;;;;;;4974043;28;20039;-84
2020/12/24 01:12:13;;;;;;;13.18;9.15;;;2.90;62.00;;;;;;4957176;28;20122;-86
2020/12/24 01:14:39;;;;;;;14.35;8.98;;;2.90;62.10;;;;;;4974792;28;20495;-87
2020/12/24 01:17:05;;;;;;;14.15;10.10;;;2.90;62.20;;;;;;4975972;28;20098;-88
2020/12/24 01:19:31;;;;;;;14.68;9.70;;;2.90;62.10;;;;;;4978004;28;20042;-85
2020/12/24 01:21:57;;;;;;;12.32;8.40;;;2.90;62.20;;;;;;4977962;28;20077;-87
2020/12/24 01:24:22;;;;;;;14.63;9.25;;;2.90;62.10;;;;;;4979831;28;20042;-84
2020/12/24 01:26:49;;;;;;;12.90;9.07;;;2.90;62.10;;;;;;4982181;28;20042;-87
2020/12/24 01:29:15;;;;;;;12.38;8.52;;;2.90;62.00;;;;;;4977847;28;20043;-86
2020/12/24 01:31:49;;;;;;;14.20;9.50;;;2.90;62.10;;;;;;4959755;28;20043;-85
2020/12/24 01:34:17;;;;;;;12.32;8.60;;;2.90;62.10;;;;;;4959231;28;20043;-86
2020/12/24 01:36:43;;;;;;;15.93;9.38;;;2.80;62.00;;;;;;4958339;28;20053;-86
2020/12/24 01:39:09;;;;;;;14.48;8.68;;;2.90;62.20;;;;;;4975351;28;20042;-84
2020/12/24 01:41:35;;;;;;;14.93;8.93;;;2.90;62.10;;;;;;4975013;28;20514;-86
2020/12/24 01:44:01;;;;;;;13.68;8.60;;;2.90;62.20;;;;;;4975397;28;20066;-86
2020/12/24 01:46:27;;;;;;;11.25;7.95;;;2.90;62.20;;;;;;4976429;28;20483;-88
2020/12/24 01:48:53;;;;;;;12.75;8.27;;;2.90;62.30;;;;;;4976466;28;20501;-87
2020/12/24 01:51:31;;;;;;;12.85;8.70;;;2.80;62.20;;;;;;4965021;28;20101;-86
2020/12/24 01:53:59;;;;;;;13.75;8.73;;;2.90;62.30;;;;;;4995416;28;20098;-88
2020/12/24 01:56:26;;;;;;;11.63;8.35;;;2.80;62.30;;;;;;4994958;28;20442;-86
2020/12/24 01:58:53;;;;;;;13.43;8.98;;;2.90;62.30;;;;;;4995214;28;20158;-86
2020/12/24 02:01:21;;;;;;;12.82;8.65;;;2.90;62.40;;;;;;4994051;28;20035;-86
2020/12/24 02:03:49;;;;;;;14.23;7.88;;;2.80;62.30;;;;;;4994266;28;20042;-88
2020/12/24 02:06:15;;;;;;;14.48;8.65;;;2.80;62.30;;;;;;4975862;28;20118;-86
2020/12/24 02:08:40;;;;;;;15.15;8.95;;;2.90;62.30;;;;;;4993162;28;20070;-86
2020/12/24 02:11:07;;;;;;;13.63;8.88;;;2.90;62.20;;;;;;4993537;28;20121;-86
2020/12/24 02:13:34;;;;;;;12.82;8.40;;;2.80;62.20;;;;;;4978971;28;20057;-85
2020/12/24 02:16:00;;;;;;;13.30;8.88;;;2.80;62.20;;;;;;4997174;28;20038;-86
2020/12/24 02:18:26;;;;;;;14.25;8.55;;;2.80;62.30;;;;;;4997069;28;20038;-85
2020/12/24 02:20:52;;;;;;;13.35;8.70;;;2.80;62.30;;;;;;4996655;28;20053;-86
2020/12/24 02:23:18;;;;;;;13.25;8.43;;;2.80;62.30;;;;;;4978890;28;20448;-87
2020/12/24 02:25:44;;;;;;;11.63;8.40;;;2.80;62.30;;;;;;4997447;28;20093;-86
2020/12/24 02:28:10;;;;;;;11.75;8.10;;;2.80;62.30;;;;;;4997453;28;20040;-87
2020/12/24 02:30:37;;;;;;;16.90;9.13;;;2.80;62.30;;;;;;4997242;28;20149;-85
2020/12/24 02:33:04;;;;;;;13.35;9.05;;;2.80;62.30;;;;;;4969574;28;20082;-86
2020/12/24 02:35:30;;;;;;;15.00;9.25;;;2.80;62.30;;;;;;4979305;28;20065;-86
2020/12/24 02:37:56;;;;;;;10.45;7.82;;;2.80;62.30;;;;;;4996326;28;20034;-86
2020/12/24 02:40:23;;;;;;;14.85;8.73;;;2.80;62.20;;;;;;4978679;28;20034;-85
2020/12/24 02:42:50;;;;;;;13.20;8.57;;;2.80;62.20;;;;;;4995501;28;20034;-87
2020/12/24 02:45:16;;;;;;;12.82;8.77;;;2.80;62.30;;;;;;4978229;28;20072;-86
2020/12/24 02:47:42;;;;;;;13.95;8.50;;;2.80;62.20;;;;;;4996311;28;20026;-85
2020/12/24 02:50:09;;;;;;;12.25;8.43;;;2.80;62.30;;;;;;4996130;28;20046;-88
2020/12/24 02:52:36;;;;;;;12.93;8.82;;;2.80;62.30;;;;;;4995734;28;20062;-86
2020/12/24 02:55:04;;;;;;;13.15;8.52;;;2.80;62.30;;;;;;4996220;28;20038;-87
2020/12/24 02:57:31;;;;;;;16.13;9.23;;;2.80;62.30;;;;;;4979712;28;20032;-86
2020/12/24 02:59:57;;;;;;;15.23;9.05;;;2.80;62.30;;;;;;4998024;28;20470;-86
2020/12/24 03:02:23;;;;;;;12.98;8.55;;;2.80;62.30;;;;;;4979773;28;20042;-86
2020/12/24 03:04:49;;;;;;;14.10;9.60;;;2.80;62.40;;;;;;4996410;28;20046;-86
2020/12/24 03:07:15;;;;;;;13.75;9.02;;;2.80;62.40;;;;;;4995848;28;20061;-85
2020/12/24 03:09:41;;;;;;;15.52;8.75;;;2.80;62.50;;;;;;4996768;28;20038;-86
2020/12/24 03:12:10;;;;;;;13.82;9.70;;;2.80;62.50;;;;;;4980784;28;20037;-86
2020/12/24 03:14:36;;;;;;;14.43;8.90;;;2.80;62.50;;;;;;4997528;28;20548;-83
2020/12/24 03:17:02;;;;;;;17.65;9.95;;;2.80;62.50;;;;;;4995960;28;20129;-85
2020/12/24 03:19:29;;;;;;;14.95;9.35;;;2.80;62.50;;;;;;4995590;28;20375;-86
2020/12/24 03:21:54;;;;;;;15.82;9.20;;;2.80;62.50;;;;;;4978123;28;20057;-85
2020/12/24 03:24:20;;;;;;;14.68;9.13;;;2.80;62.50;;;;;;4994869;28;20050;-88
2020/12/24 03:26:46;;;;;;;15.70;9.70;;;2.90;62.50;;;;;;4997476;28;20398;-87
2020/12/24 03:29:12;;;;;;;15.63;9.00;;;2.80;62.40;;;;;;4977513;28;20045;-87
2020/12/24 03:31:38;;;;;;;17.38;9.32;;;2.80;62.60;;;;;;4995224;28;20034;-85
2020/12/24 03:34:04;;;;;;;14.70;9.20;;;2.80;62.60;;;;;;4995986;28;20042;-85
2020/12/24 03:36:30;;;;;;;14.48;9.10;;;2.80;62.50;;;;;;4980358;28;20038;-88
2020/12/24 03:38:56;;;;;;;16.42;9.00;;;2.80;62.60;;;;;;5001781;28;20394;-87
2020/12/24 03:41:23;;;;;;;15.90;9.40;;;2.80;62.70;;;;;;5003386;28;20053;-87
2020/12/24 03:43:48;;;;;;;14.60;9.23;;;2.80;62.70;;;;;;4983300;28;20066;-86
2020/12/24 03:46:14;;;;;;;17.85;10.38;;;2.80;62.70;;;;;;4985682;28;20188;-87
2020/12/24 03:48:40;;;;;;;13.95;9.07;;;2.80;62.70;;;;;;4983637;28;20114;-88
2020/12/24 03:51:06;;;;;;;18.30;10.60;;;2.80;62.70;;;;;;4992479;28;20055;-89
2020/12/24 03:53:32;;;;;;;16.50;10.05;;;2.80;62.70;;;;;;4982826;28;20042;-88
2020/12/24 03:55:58;;;;;;;15.20;9.32;;;2.70;62.60;;;;;;4996711;28;20034;-89
2020/12/24 03:58:24;;;;;;;17.95;10.13;;;2.70;62.50;;;;;;4983694;28;20090;-87
2020/12/24 04:00:50;;;;;;;15.50;9.95;;;2.80;62.60;;;;;;5015306;28;20106;-91
2020/12/24 04:03:16;;;;;;;16.88;10.50;;;2.70;62.60;;;;;;5006766;28;20466;-84
2020/12/24 04:05:42;;;;;;;14.63;9.77;;;2.70;62.60;;;;;;4996060;28;20038;-82
2020/12/24 04:08:08;;;;;;;16.33;10.18;;;2.80;62.70;;;;;;4999358;28;20409;-86
2020/12/24 04:10:34;;;;;;;16.20;9.75;;;2.70;62.60;;;;;;4997843;28;20069;-86
2020/12/24 04:13:00;;;;;;;17.73;10.40;;;2.70;62.60;;;;;;4997254;28;20045;-85
2020/12/24 04:15:26;;;;;;;16.88;9.68;;;2.80;62.60;;;;;;4994924;28;20081;-85
2020/12/24 04:17:52;;;;;;;15.88;10.85;;;2.70;62.60;;;;;;4994443;28;20486;-88
2020/12/24 04:20:18;;;;;;;17.50;10.85;;;2.70;62.70;;;;;;4994934;28;20113;-88
2020/12/24 04:22:44;;;;;;;17.85;11.15;;;2.80;62.70;;;;;;4978550;28;20026;-86
2020/12/24 04:25:10;;;;;;;20.08;10.35;;;2.80;62.70;;;;;;4981550;28;20045;-87
2020/12/24 04:27:36;;;;;;;19.73;10.65;;;2.70;62.80;;;;;;4980364;28;20034;-86
2020/12/24 04:30:03;;;;;;;16.67;10.23;;;2.70;62.70;;;;;;4996036;28;20118;-84
2020/12/24 04:32:30;;;;;;;19.40;11.00;;;2.70;62.80;;;;;;4993010;28;20451;-85
2020/12/24 04:34:56;;;;;;;17.67;10.23;;;2.70;62.80;;;;;;4990069;28;20497;-89
2020/12/24 04:37:22;;;;;;;16.13;10.30;;;2.70;62.80;;;;;;4965218;28;20031;-87
2020/12/24 04:39:48;;;;;;;16.95;10.20;;;2.70;62.70;;;;;;4994027;28;20466;-91
2020/12/24 04:42:15;;;;;;;17.38;10.88;;;2.70;62.70;;;;;;5005297;28;20034;-88
2020/12/24 04:44:42;;;;;;;17.60;10.43;;;2.70;62.70;;;;;;4998667;28;20038;-86
2020/12/24 04:47:09;;;;;;;19.40;10.70;;;2.70;62.80;;;;;;4995144;28;20465;-88
2020/12/24 04:49:35;;;;;;;18.23;11.40;;;2.70;62.70;;;;;;4978911;28;20046;-92
2020/12/24 04:52:01;;;;;;;18.70;10.93;;;2.70;62.80;;;;;;4999933;28;20054;-88
2020/12/24 04:54:27;;;;;;;18.02;10.77;;;2.80;62.90;;;;;;4995532;28;20383;-88
2020/12/24 04:56:54;;;;;;;16.48;10.65;;;2.70;62.70;;;;;;5004072;28;20042;-87
2020/12/24 04:59:20;;;;;;;17.98;10.50;;;2.70;62.90;;;;;;4980550;28;20077;-88
2020/12/24 05:01:53;;;;;;;18.70;10.82;;;2.70;62.90;;;;;;4996325;28;20053;-87
2020/12/24 05:04:19;;;;;;;18.70;10.98;;;2.70;62.90;;;;;;4982067;28;20042;-92
2020/12/24 05:06:45;;;;;;;19.83;12.02;;;2.70;62.90;;;;;;5006652;28;20164;-91
2020/12/24 05:09:12;;;;;;;19.42;10.90;;;2.70;62.90;;;;;;4992225;28;20038;-93
2020/12/24 05:11:43;;;;;;;19.30;10.65;;;2.70;63.00;;;;;;5006504;28;20043;-91
2020/12/24 05:14:15;;;;;;;19.83;10.90;;;2.70;63.00;;;;;;4979842;28;20034;-90
2020/12/24 05:16:59;;;;;;;20.23;11.00;;;2.70;63.10;;;;;;4993089;28;20034;-82
2020/12/24 05:19:27;;;;;;;18.58;11.07;;;2.70;63.00;;;;;;4993542;28;20093;-85
2020/12/24 05:21:54;;;;;;;20.63;11.50;;;2.70;63.00;;;;;;4976184;28;20038;-87
2020/12/24 05:24:28;;;;;;;20.83;11.50;;;2.70;63.00;;;;;;5004318;28;20038;-84
2020/12/24 05:27:08;;;;;;;21.48;11.70;;;2.70;63.00;;;;;;4986924;28;20042;-88
2020/12/24 05:29:38;;;;;;;18.20;11.45;;;2.70;63.00;;;;;;5009771;28;20564;-90
2020/12/24 05:32:05;;;;;;;20.80;12.23;;;2.70;63.10;;;;;;5009972;28;20041;-84
2020/12/24 05:34:31;;;;;;;21.88;12.27;;;2.70;63.20;;;;;;4996919;28;20071;-89
2020/12/24 05:37:15;;;;;;;22.08;12.23;;;2.70;63.30;;;;;;4976388;28;20442;-85
2020/12/24 05:39:43;;;;;;;18.92;11.85;;;2.70;63.30;;;;;;4975808;28;20505;-85
2020/12/24 05:42:09;;;;;;;17.38;10.95;;;2.70;63.40;;;;;;4993940;28;20129;-86
2020/12/24 05:44:36;;;;;;;20.35;12.05;;;2.70;63.40;;;;;;4993752;28;20053;-88
2020/12/24 05:47:03;;;;;;;22.85;13.32;;;2.70;63.50;;;;;;4995174;28;20549;-87
2020/12/24 05:49:29;;;;;;;20.88;12.77;;;2.70;63.50;;;;;;4997606;28;20092;-86
2020/12/24 05:51:59;;;;;;;20.70;11.63;;;2.70;63.50;;;;;;4998612;28;20062;-88
2020/12/24 05:54:29;;;;;;;19.90;12.05;;;2.70;63.60;;;;;;4980327;28;20034;-86
2020/12/24 05:56:57;;;;;;;22.95;13.68;;;2.70;63.60;;;;;;4966828;28;20038;-89
2020/12/24 05:59:25;;;;;;;19.70;12.15;;;2.70;63.70;;;;;;4981040;28;20038;-88
2020/12/24 06:01:59;;;;;;;21.42;12.00;;;2.70;63.80;;;;;;5000820;28;20076;-88
2020/12/24 06:04:47;;;;;;;21.87;13.37;;;2.70;63.90;;;;;;5000550;28;20050;-86
2020/12/24 06:07:14;;;;;;;22.25;13.35;;;2.70;64.00;;;;;;5001910;28;20352;-88
2020/12/24 06:09:42;;;;;;;21.13;12.10;;;2.70;64.00;;;;;;4990772;28;20042;-88
2020/12/24 06:12:25;;;;;;;21.15;12.55;;;2.70;64.00;;;;;;4983965;28;20121;-88
2020/12/24 06:14:52;;;;;;;21.80;12.10;;;2.70;64.00;;;;;;5002389;28;20053;-90
2020/12/24 06:17:20;;;;;;;20.35;12.50;;;2.70;64.10;;;;;;5010236;28;20042;-86
2020/12/24 06:19:47;;;;;;;21.33;12.52;;;2.70;64.10;;;;;;5013019;28;20038;-88
2020/12/24 06:22:17;;;;;;;20.48;12.73;;;2.70;64.20;;;;;;5009978;28;20049;-89
2020/12/24 06:24:51;;;;;;;26.13;15.52;;;2.70;64.20;;;;;;5003712;28;20529;-86
2020/12/24 06:27:40;;;;;;;28.23;14.57;;;2.70;64.20;;;;;;4966775;28;20026;-89
2020/12/24 06:30:25;;;;;;;24.95;14.23;;;2.50;64.30;;;;;;4982255;28;20042;-88
2020/12/24 06:32:55;;;;;;;26.30;13.82;;;2.30;65.00;;;;;;4999732;28;20045;-87
2020/12/24 06:35:34;;;;;;;29.60;14.43;;;2.20;65.40;;;;;;4979161;28;20084;-86
2020/12/24 06:38:01;;;;;;;25.75;14.93;;;2.00;65.90;;;;;;4996829;28;20065;-84
2020/12/24 06:40:33;;;;;;;27.63;15.55;;;2.00;66.20;;;;;;4996638;28;20042;-91
2020/12/24 06:43:00;;;;;;;28.75;15.55;;;1.90;66.40;;;;;;5005105;28;20045;-88
2020/12/24 06:45:29;;;;;;;32.47;15.90;;;1.80;66.40;;;;;;4997773;28;20046;-86
2020/12/24 06:48:24;;;;;;;26.98;14.07;;;1.80;66.70;;;;;;4981384;28;20034;-88
2020/12/24 06:51:03;;;;;;;25.50;14.75;;;1.80;67.00;;;;;;4998235;28;20169;-86
2020/12/24 06:53:37;;;;;;;26.55;14.73;;;1.80;66.80;;;;;;4990783;28;20074;-88
2020/12/24 06:56:16;;;;;;;30.17;16.40;;;1.80;66.80;;;;;;4998636;28;20121;-88
2020/12/24 06:58:46;;;;;;;28.20;15.80;;;1.80;67.10;;;;;;4983110;28;20073;-86
2020/12/24 07:01:19;;;;;;;28.88;15.55;;;1.80;67.10;;;;;;4997207;28;20034;-86
2020/12/24 07:03:46;;;;;;;30.58;16.77;;;1.80;67.00;;;;;;4957522;28;20518;-89
2020/12/24 07:06:12;;;;;;;29.80;16.08;;;1.70;67.30;;;;;;4996381;28;20038;-89
2020/12/24 07:08:41;;;;;;;30.02;14.95;;;1.70;67.40;;;;;;4997668;28;20122;-88
2020/12/24 07:11:07;;;;;;;30.20;15.35;;;1.60;67.70;;;;;;4979711;28;20069;-87
2020/12/24 07:13:36;;;;;;;29.67;15.93;;;1.70;67.50;;;;;;4998242;28;20041;-88
2020/12/24 07:16:10;;;;;;;28.35;15.13;;;1.70;67.30;;;;;;4996899;28;20109;-88
2020/12/24 07:18:39;;;;;;;29.38;15.95;;;1.60;67.30;;;;;;4981072;28;20030;-88
2020/12/24 07:21:09;;;;;;;30.30;15.27;;;1.70;67.40;;;;;;5005750;28;20046;-89
2020/12/24 07:23:39;;;;;;;28.73;14.93;;;1.70;67.20;;;;;;4982416;28;20085;-90
2020/12/24 07:26:10;;;;;;;34.05;16.38;;;1.70;67.00;;;;;;5001098;28;20045;-89
2020/12/24 07:28:39;;;;;;;29.73;15.80;;;1.80;67.00;;;;;;4996738;28;20034;-90
2020/12/24 07:31:07;;;;;;;31.58;15.48;;;1.70;67.30;;;;;;4998070;28;20041;-88
2020/12/24 07:33:34;;;;;;;30.42;15.93;;;1.70;67.50;;;;;;4998239;28;20398;-87
2020/12/24 07:36:01;;;;;;;28.48;14.57;;;1.80;67.60;;;;;;4995941;28;20511;-89
2020/12/24 07:38:31;;;;;;;27.92;15.48;;;1.80;67.70;;;;;;4995361;28;20117;-88
2020/12/24 07:40:57;;;;;;;28.02;15.23;;;1.70;67.60;;;;;;4979932;28;20076;-89
2020/12/24 07:43:26;;;;;;;27.17;14.40;;;1.70;67.60;;;;;;4978998;28;20065;-89
2020/12/24 07:45:53;;;;;;;30.77;16.58;;;1.80;68.00;;;;;;4995240;28;20065;-89
2020/12/24 07:48:23;;;;;;;30.48;16.13;;;1.80;68.10;;;;;;4997848;28;20047;-90
2020/12/24 07:50:52;;;;;;;29.42;16.00;;;1.80;67.80;;;;;;4963557;28;20122;-90
2020/12/24 07:53:20;;;;;;;29.35;15.43;;;1.90;67.70;;;;;;4964704;28;20038;-90
2020/12/24 07:55:46;;;;;;;33.67;16.70;;;1.80;67.50;;;;;;4980155;28;20054;-88
2020/12/24 07:58:14;;;;;;;30.60;15.93;;;1.90;68.20;;;;;;4997170;28;20031;-88
2020/12/24 08:00:43;;;;;;;27.80;16.70;;;1.80;67.60;;;;;;4979844;28;20034;-88
2020/12/24 08:03:11;;;;;;;28.73;15.38;;;1.80;67.70;;;;;;4997397;28;20084;-90
2020/12/24 08:05:37;;;;;;;30.20;15.07;;;2.00;69.30;;;;;;4984534;28;20038;-89
2020/12/24 08:08:04;;;;;;;28.23;14.70;;;2.20;71.30;;;;;;5003552;28;20525;-90
2020/12/24 08:10:29;;;;;;;29.17;15.35;;;2.30;71.00;;;;;;5000866;28;20034;-89
2020/12/24 08:13:05;;;;;;;28.63;14.73;;;2.40;70.50;;;;;;5001901;28;20034;-91
2020/12/24 08:15:33;;;;;;;27.27;14.25;;;2.50;70.10;;;;;;4999604;28;20105;-90
2020/12/24 08:18:04;;;;;;;26.05;15.57;;;2.60;69.60;;;;;;4981837;28;20046;-90
2020/12/24 08:20:48;;;;;;;31.10;15.23;;;2.60;69.20;;;;;;4981494;28;20030;-88
2020/12/24 08:23:26;;;;;;;29.83;15.85;;;2.70;68.90;;;;;;5001169;28;20149;-90
2020/12/24 08:25:55;;;;;;;27.80;15.15;;;2.70;68.60;;;;;;4986274;28;20036;-91
2020/12/24 08:28:24;;;;;;;27.15;15.23;;;2.70;68.40;;;;;;5002752;28;20532;-89
2020/12/24 08:30:51;;;;;;;28.75;15.95;;;2.80;68.20;;;;;;4983717;28;20038;-89
2020/12/24 08:33:17;;;;;;;27.85;15.48;;;2.80;67.90;;;;;;5003204;28;20093;-89
2020/12/24 08:35:44;;;;;;;33.10;17.23;;;2.80;67.80;;;;;;4981434;28;20034;-90
2020/12/24 08:38:15;;;;;;;27.00;13.30;;;2.80;67.70;;;;;;4995335;28;20038;-87
2020/12/24 08:40:42;;;;;;;22.35;11.77;;;2.90;71.00;;;;;;4979229;28;20061;-88
2020/12/24 08:43:10;;;;;;;25.17;13.45;;;3.20;79.50;;;;;;4978803;28;20034;-90
2020/12/24 08:45:47;;;;;;;29.48;14.82;;;3.30;79.30;;;;;;5003274;28;20038;-89
2020/12/24 08:48:34;;;;;;;27.02;14.70;;;3.40;79.40;;;;;;5006054;28;20042;-90
2020/12/24 08:51:14;;;;;;;25.95;14.68;;;3.40;78.30;;;;;;4992562;28;20038;-90
2020/12/24 08:53:41;;;;;;;27.58;14.60;;;3.40;77.10;;;;;;4992856;28;20038;-89
2020/12/24 08:56:15;;;;;;;25.05;13.85;;;3.30;76.10;;;;;;5010982;28;20438;-86
2020/12/24 08:58:49;;;;;;;27.88;15.20;;;3.30;75.70;;;;;;4977346;28;20057;-89
2020/12/24 09:01:16;;;;;;;30.55;16.38;;;3.30;74.20;;;;;;5012404;28;20042;-90
2020/12/24 09:03:43;;;;;;;31.20;15.70;;;3.30;73.50;;;;;;5009921;28;20050;-85
2020/12/24 09:06:16;;;;;;;31.65;16.25;;;3.30;73.30;;;;;;5006152;28;20042;-86
2020/12/24 09:08:49;;;;;;;28.13;16.48;;;3.30;72.10;;;;;;5005331;28;20049;-83
2020/12/24 09:11:25;;;;;;;27.05;15.45;;;3.30;71.60;;;;;;4983880;28;20050;-83
2020/12/24 09:13:58;;;;;;;;;;;3.20;71.80;;;;;;4987374;28;20046;-84
2020/12/24 09:16:24;;;;;;;28.90;14.88;;;3.20;70.80;;;;;;4999834;28;19990;-83
2020/12/24 09:19:07;;;;;;;29.52;14.68;;;3.20;70.70;;;;;;4999379;28;20402;-81
2020/12/24 09:21:34;;;;;;;29.77;16.27;;;3.20;70.30;;;;;;4978026;28;20041;-81
2020/12/24 09:24:06;;;;;;;26.25;14.93;;;3.20;70.10;;;;;;4998055;28;20098;-83
2020/12/24 09:26:47;;;;;;;24.35;13.85;;;3.20;69.90;;;;;;4998740;28;20053;-82
2020/12/24 09:29:15;;;;;;;30.33;15.63;;;3.20;69.70;;;;;;5005321;28;20034;-84
2020/12/24 09:31:41;;;;;;;30.67;16.05;;;3.20;69.70;;;;;;4964953;28;20187;-83
2020/12/24 09:34:08;;;;;;;29.45;15.90;;;3.10;69.30;;;;;;4997378;28;20466;-84
2020/12/24 09:36:34;;;;;;;27.77;15.82;;;3.10;69.30;;;;;;4980220;28;20105;-84
2020/12/24 09:39:00;;;;;;;26.05;14.93;;;3.10;69.30;;;;;;4997093;28;20034;-82
2020/12/24 09:41:26;;;;;;;28.35;16.38;;;3.20;69.10;;;;;;4997301;28;20038;-82
2020/12/24 09:43:52;;;;;;;32.88;17.35;;;3.20;69.00;;;;;;4963312;28;20054;-82
2020/12/24 09:46:18;;;;;;;29.48;16.80;;;3.20;68.90;;;;;;4996678;28;20046;-82
2020/12/24 09:48:44;;;;;;;27.05;16.08;;;3.20;68.70;;;;;;4996362;28;20042;-82
2020/12/24 09:51:10;;;;;;;26.00;15.25;;;3.20;68.70;;;;;;4996565;28;20061;-85
2020/12/24 09:53:35;;;;;;;32.15;17.60;;;3.20;68.70;;;;;;4996596;28;20043;-83
2020/12/24 09:56:01;;;;;;;32.65;17.27;;;3.20;68.50;;;;;;4996254;28;20193;-81
2020/12/24 09:58:27;;;;;;;29.70;16.60;;;3.20;68.50;;;;;;4996543;28;20053;-83
2020/12/24 10:00:53;;;;;;;30.38;17.08;;;3.20;68.40;;;;;;4996445;28;20034;-83
2020/12/24 10:03:19;;;;;;;31.48;17.52;;;3.20;68.40;;;;;;4996502;28;20422;-81
2020/12/24 10:05:45;;;;;;;29.38;16.20;;;3.20;68.40;;;;;;4996240;28;20034;-82
2020/12/24 10:08:12;;;;;;;33.50;18.33;;;3.20;68.40;;;;;;4996346;28;20081;-83
2020/12/24 10:10:38;;;;;;;31.40;17.48;;;3.20;68.30;;;;;;4996564;28;20430;-82
2020/12/24 10:13:04;;;;;;;32.47;18.25;;;3.20;68.30;;;;;;4996339;28;20042;-82
2020/12/24 10:15:30;;;;;;;30.35;16.67;;;3.20;68.10;;;;;;4996507;28;20490;-83
2020/12/24 10:17:56;;;;;;;29.10;16.40;;;3.20;68.10;;;;;;4996592;28;20035;-81
2020/12/24 10:20:22;;;;;;;30.25;16.33;;;3.30;68.00;;;;;;4996452;28;20042;-82
2020/12/24 10:22:48;;;;;;;30.02;15.98;;;3.20;68.10;;;;;;4981328;28;20034;-83
2020/12/24 10:25:14;;;;;;;33.40;17.55;;;3.20;68.10;;;;;;4996551;28;20506;-82
2020/12/24 10:27:40;;;;;;;31.95;16.90;;;3.20;68.20;;;;;;4979110;28;20049;-82
2020/12/24 10:30:06;;;;;;;28.52;16.20;;;3.20;68.10;;;;;;4996243;28;20453;-83
2020/12/24 10:32:32;;;;;;;31.08;16.65;;;3.20;68.10;;;;;;4978176;28;20030;-81
2020/12/24 10:34:58;;;;;;;28.45;16.45;;;3.20;68.10;;;;;;4995619;28;20097;-81
2020/12/24 10:37:24;;;;;;;33.50;18.13;;;3.20;68.10;;;;;;4978420;28;20078;-82
2020/12/24 10:39:49;;;;;;;32.13;18.95;;;3.20;68.20;;;;;;4978297;28;20505;-82
2020/12/24 10:42:15;;;;;;;29.70;17.77;;;3.30;68.20;;;;;;4978126;28;20564;-82
2020/12/24 10:44:43;;;;;;;32.28;16.58;;;3.30;68.20;;;;;;4995289;28;20053;-83
2020/12/24 10:47:09;;;;;;;31.08;17.50;;;3.30;68.20;;;;;;4995521;28;20082;-83
2020/12/24 10:49:34;;;;;;;32.47;17.67;;;3.30;68.00;;;;;;4995280;28;20035;-81
2020/12/24 10:52:00;;;;;;;30.73;18.08;;;3.30;68.00;;;;;;4995181;28;20069;-82
2020/12/24 10:54:26;;;;;;;31.50;17.65;;;3.30;68.00;;;;;;4995117;28;20030;-82
2020/12/24 10:56:52;;;;;;;34.13;18.83;;;3.30;68.00;;;;;;4995275;28;20026;-82
2020/12/24 10:59:19;;;;;;;33.67;18.00;;;3.30;67.90;;;;;;4995262;28;20039;-83
2020/12/24 11:01:46;;;;;;;31.02;17.88;;;3.30;68.00;;;;;;5001688;28;20391;-82
2020/12/24 11:04:12;;;;;;;32.58;17.85;;;3.30;68.00;;;;;;4961800;28;20121;-82
2020/12/24 11:06:42;;;;;;;31.42;17.30;;;3.30;68.00;;;;;;4978001;28;20068;-82
2020/12/24 11:09:08;;;;;;;31.08;18.48;;;3.30;68.10;;;;;;4995626;28;20034;-83
2020/12/24 11:11:35;;;;;;;32.17;17.95;;;3.30;68.10;;;;;;4978601;28;20051;-81
2020/12/24 11:14:01;;;;;;;33.45;17.92;;;3.30;68.20;;;;;;4995321;28;20050;-83
2020/12/24 11:16:27;;;;;;;32.45;18.17;;;3.30;68.20;;;;;;4994849;28;20414;-82
2020/12/24 11:18:53;;;;;;;30.90;15.98;;;3.30;68.30;;;;;;4978518;28;20096;-83
2020/12/24 11:21:20;;;;;;;32.50;18.20;;;3.30;68.40;;;;;;4995233;28;20505;-82
2020/12/24 11:23:46;;;;;;;31.25;17.75;;;3.20;68.50;;;;;;4995166;28;20046;-81
2020/12/24 11:26:20;;;;;;;33.85;17.20;;;3.20;68.50;;;;;;4994975;28;20042;-79
2020/12/24 11:28:46;;;;;;;37.13;17.90;;;3.20;68.60;;;;;;4994473;28;20490;-81
2020/12/24 11:31:13;;;;;;;36.17;18.38;;;3.30;73.20;;;;;;4994976;28;20034;-81
2020/12/24 11:33:42;;;;;;;38.00;18.15;;;3.20;74.50;;;;;;4994925;28;20062;-89
2020/12/24 11:36:08;;;;;;;36.63;20.45;;;3.10;73.80;;;;;;4980214;28;20066;-84
2020/12/24 11:38:34;;;;;;;36.67;18.50;;;2.90;72.90;;;;;;4976893;28;20070;-81
2020/12/24 11:41:00;;;;;;;40.50;18.77;;;2.90;72.20;;;;;;4994349;28;20042;-81
2020/12/24 11:43:54;;;;;;;34.05;19.23;;;2.70;71.70;;;;;;4995989;28;20521;-88
2020/12/24 11:46:38;;;;;;;33.28;18.70;;;2.80;71.40;;;;;;4978814;28;20049;-86
2020/12/24 11:49:17;;;;;;;33.25;19.17;;;2.60;70.80;;;;;;4979600;28;20371;-88
2020/12/24 11:51:50;;;;;;;30.92;14.45;;;2.70;70.90;;;;;;4962252;28;20081;-82
2020/12/24 11:54:17;;;;;;;28.73;14.35;;;3.00;90.80;;;;;;4994151;28;20490;-85
2020/12/24 11:56:43;;;;;;;33.33;17.33;;;3.70;94.40;;;;;;4994855;28;20498;-83
2020/12/24 11:59:09;;;;;;;34.83;18.33;;;3.90;90.50;;;;;;4977721;28;20061;-86
2020/12/24 12:01:35;;;;;;;37.47;20.02;;;3.80;86.90;;;;;;4976913;28;20093;-84
2020/12/24 12:04:01;;;;;;;32.83;18.15;;;3.60;83.80;;;;;;4994387;28;20402;-85
2020/12/24 12:06:27;;;;;;;39.17;20.77;;;3.40;81.10;;;;;;4994206;28;20034;-84
2020/12/24 12:08:53;;;;;;;38.03;19.60;;;3.30;79.40;;;;;;4976675;28;20029;-86
2020/12/24 12:11:19;;;;;;;37.28;19.83;;;3.20;78.10;;;;;;4978007;28;20038;-83
2020/12/24 12:13:50;;;;;;;36.10;20.25;;;3.20;76.50;;;;;;5000123;28;20061;-84
2020/12/24 12:16:23;;;;;;;36.05;19.77;;;3.00;75.90;;;;;;4976876;28;20038;-82
2020/12/24 12:18:49;;;;;;;36.65;19.90;;;2.80;75.50;;;;;;4998366;28;20117;-87
2020/12/24 12:21:18;;;;;;;35.83;18.85;;;2.80;75.00;;;;;;4995811;28;20617;-89
2020/12/24 12:23:45;;;;;;;37.50;19.15;;;2.70;74.50;;;;;;4995802;28;20046;-89
2020/12/24 12:26:11;;;;;;;35.53;20.33;;;2.60;74.20;;;;;;4962168;28;20402;-91
2020/12/24 12:28:40;;;;;;;33.97;18.13;;;2.50;73.90;;;;;;5001072;28;20045;-89
2020/12/24 12:31:05;;;;;;;38.10;18.80;;;2.50;73.90;;;;;;4999770;28;20494;-87
2020/12/24 12:33:31;;;;;;;32.65;18.98;;;2.50;73.90;;;;;;4978063;28;20042;-87
2020/12/24 12:35:58;;;;;;;35.83;17.80;;;2.40;73.70;;;;;;4995286;28;20453;-87
2020/12/24 12:38:23;;;;;;;32.67;18.00;;;2.40;73.50;;;;;;4994571;28;20541;-85
2020/12/24 12:40:49;;;;;;;32.72;18.75;;;2.40;73.80;;;;;;4994279;28;20133;-86
2020/12/24 12:43:15;;;;;;;33.95;18.55;;;2.40;73.50;;;;;;4993712;28;20034;-89
2020/12/24 12:45:41;;;;;;;38.85;19.05;;;2.30;73.50;;;;;;4993914;28;20035;-88